Time;durP1;ratioP1;P1;durP2;ratioP2;P2;SDS_P1;SDS_P2;PMS_P1;PMS_P2;Temp;Humidity;BMP_temperature;BMP_pressure;BME280_temperature;BME280_humidity;BME280_pressure;Samples;Min_cycle;Max_cycle;Signal;HPM_P1;HPM_P2
2022/01/18 00:01:28;;;;;;;19.67;5.70;;;0.50;99.90;;;;;;4954242;29;20034;-79
2022/01/18 00:03:53;;;;;;;21.38;6.53;;;0.40;99.90;;;;;;4954601;28;20511;-79
2022/01/18 00:06:19;;;;;;;;;;;0.40;99.90;;;;;;4956893;28;20023;-78
2022/01/18 00:08:46;;;;;;;7.20;2.70;;;0.40;99.90;;;;;;4954628;29;20612;-78
2022/01/18 00:11:12;;;;;;;;;;;0.40;99.90;;;;;;4955533;29;20110;-78
2022/01/18 00:13:56;;;;;;;11.30;2.38;;;0.30;99.90;;;;;;4955423;28;19945;-79
2022/01/18 00:16:37;;;;;;;14.05;2.95;;;0.30;99.90;;;;;;4953745;29;20031;-78
2022/01/18 00:19:08;;;;;;;12.95;4.57;;;0.40;99.90;;;;;;4954427;28;20082;-79
2022/01/18 00:22:05;;;;;;;13.85;3.95;;;0.50;99.90;;;;;;4954474;28;20468;-78
2022/01/18 00:24:31;;;;;;;15.07;4.07;;;0.50;99.90;;;;;;4954286;29;20023;-79
2022/01/18 00:27:24;;;;;;;;;;;0.40;99.90;;;;;;4955357;29;20082;-78
2022/01/18 00:30:03;;;;;;;16.30;5.05;;;0.40;99.90;;;;;;4954249;28;19929;-78
2022/01/18 00:32:52;;;;;;;10.07;2.80;;;0.30;99.90;;;;;;4953153;28;20093;-79
2022/01/18 00:35:17;;;;;;;11.30;3.25;;;0.30;99.90;;;;;;4953927;28;20062;-78
2022/01/18 00:37:52;;;;;;;;;;;0.20;99.90;;;;;;4954329;29;20126;-79
2022/01/18 00:40:17;;;;;;;8.18;2.90;;;0.10;99.90;;;;;;4954036;29;20379;-78
2022/01/18 00:42:43;;;;;;;;;;;0.10;99.90;;;;;;4956391;29;20031;-79
2022/01/18 00:45:09;;;;;;;13.77;3.72;;;0.00;99.90;;;;;;4955719;29;19965;-79
2022/01/18 00:47:35;;;;;;;;;;;-0.10;99.90;;;;;;4955476;29;20041;-79
2022/01/18 00:50:02;;;;;;;14.77;5.40;;;-0.30;99.90;;;;;;4954177;29;19914;-80
2022/01/18 00:52:31;;;;;;;14.00;5.63;;;-0.40;99.90;;;;;;4954207;29;20118;-78
2022/01/18 00:54:59;;;;;;;11.68;4.10;;;-0.50;99.90;;;;;;4953404;28;20035;-79
2022/01/18 00:57:25;;;;;;;13.13;3.05;;;-0.60;99.90;;;;;;4955822;28;20404;-79
2022/01/18 00:59:50;;;;;;;;;;;-0.60;99.90;;;;;;4953521;28;20031;-79
2022/01/18 01:02:17;;;;;;;11.57;3.40;;;-0.60;99.90;;;;;;4955357;28;19964;-79
2022/01/18 01:04:48;;;;;;;16.83;4.95;;;-0.70;99.90;;;;;;4954184;29;20046;-79
2022/01/18 01:07:15;;;;;;;19.48;7.22;;;-0.70;99.90;;;;;;4953951;29;20031;-79
2022/01/18 01:09:41;;;;;;;23.13;7.22;;;-0.70;99.90;;;;;;4954916;28;20035;-79
2022/01/18 01:12:07;;;;;;;;;;;-0.70;99.90;;;;;;4955396;29;20456;-78
2022/01/18 01:14:34;;;;;;;11.35;4.35;;;-0.80;99.90;;;;;;4956382;29;20422;-80
2022/01/18 01:17:15;;;;;;;15.43;5.10;;;-0.70;99.90;;;;;;4966751;28;20031;-78
2022/01/18 01:43:50;;;;;;;11.93;2.75;;;-0.70;99.90;;;;;;4953629;28;20066;-78
2022/01/18 01:46:18;;;;;;;10.35;2.55;;;-0.70;99.90;;;;;;4953394;28;20027;-79
2022/01/18 01:48:50;;;;;;;11.60;2.30;;;-0.70;99.90;;;;;;4960081;28;20039;-79
2022/01/18 01:51:15;;;;;;;6.88;1.90;;;-0.70;99.90;;;;;;4964052;29;20023;-79
2022/01/18 01:53:41;;;;;;;;;;;-0.80;99.90;;;;;;4958974;29;20050;-79
2022/01/18 01:56:07;;;;;;;9.65;2.45;;;-0.80;99.90;;;;;;4952895;29;19906;-80
2022/01/18 01:58:32;;;;;;;;;;;-0.80;99.90;;;;;;4952835;29;20546;-79
2022/01/18 02:01:04;;;;;;;13.07;2.83;;;-0.80;99.90;;;;;;4952100;29;20004;-80
2022/01/18 02:03:30;;;;;;;9.70;2.53;;;-0.80;99.90;;;;;;4953633;29;20094;-79
2022/01/18 02:05:56;;;;;;;;;;;-0.90;99.90;;;;;;4952426;29;20550;-79
2022/01/18 02:08:21;;;;;;;6.95;1.75;;;-0.80;99.90;;;;;;4954069;29;19949;-80
2022/01/18 02:10:47;;;;;;;;;;;-0.60;99.90;;;;;;4954779;28;20031;-79
2022/01/18 02:13:13;;;;;;;8.10;2.10;;;-0.50;99.90;;;;;;4956850;29;19910;-79
2022/01/18 02:15:47;;;;;;;13.32;2.20;;;-0.40;99.90;;;;;;4958366;29;20374;-79
2022/01/18 02:23:41;;;;;;;8.07;2.00;;;-0.40;99.90;;;;;;4957909;29;20477;-80
2022/01/18 02:26:07;;;;;;;;;;;-0.40;99.90;;;;;;4957686;29;20102;-78
2022/01/18 02:28:51;;;;;;;10.52;2.50;;;-0.50;99.90;;;;;;4957452;29;19910;-79
2022/01/18 02:31:19;;;;;;;9.40;2.38;;;-0.60;99.90;;;;;;4937448;29;20047;-79
2022/01/18 02:33:45;;;;;;;10.27;2.63;;;-0.70;99.90;;;;;;4936866;29;20031;-79
2022/01/18 02:36:10;;;;;;;;;;;-0.80;99.90;;;;;;4937909;29;20795;-79
2022/01/18 02:38:36;;;;;;;11.82;2.63;;;-0.90;99.90;;;;;;4937522;29;19934;-79
2022/01/18 02:41:02;;;;;;;;;;;-1.10;99.90;;;;;;4938410;29;20027;-79
2022/01/18 02:43:50;;;;;;;8.65;2.70;;;-1.10;99.90;;;;;;4921485;29;19911;-78
2022/01/18 02:46:16;;;;;;;14.23;3.88;;;-1.20;99.90;;;;;;4948618;29;20024;-79
2022/01/18 02:48:42;;;;;;;12.00;3.35;;;-1.30;99.90;;;;;;4939950;29;20036;-77
2022/01/18 02:51:08;;;;;;;;;;;-1.30;99.90;;;;;;4934911;29;20050;-78
2022/01/18 02:54:11;;;;;;;14.70;3.15;;;-1.40;99.90;;;;;;4917953;29;20562;-79
2022/01/18 02:56:44;;;;;;;14.13;3.15;;;-1.40;99.90;;;;;;4935360;29;20023;-78
2022/01/18 02:59:29;;;;;;;10.88;2.35;;;-1.50;99.90;;;;;;4934730;29;20083;-78
2022/01/18 03:04:40;;;;;;;6.80;1.80;;;-1.60;99.90;;;;;;4935259;29;20046;-79
2022/01/18 03:07:07;;;;;;;4.45;1.35;;;-1.60;99.90;;;;;;4935124;29;20020;-79
2022/01/18 03:09:32;;;;;;;8.75;1.85;;;-1.60;99.90;;;;;;4933438;29;20044;-79
2022/01/18 03:11:58;;;;;;;;;;;-1.70;99.90;;;;;;4933675;29;20095;-78
2022/01/18 03:14:24;;;;;;;4.65;1.80;;;-1.70;99.90;;;;;;4917418;29;19921;-79
2022/01/18 03:16:49;;;;;;;;;;;-1.70;99.90;;;;;;4935288;29;20062;-78
2022/01/18 03:19:15;;;;;;;9.35;2.03;;;-1.80;99.90;;;;;;4933775;29;19907;-78
2022/01/18 03:21:41;;;;;;;6.72;1.67;;;-1.80;99.90;;;;;;4934445;29;20032;-78
2022/01/18 03:29:36;;;;;;;8.27;2.13;;;-2.00;99.90;;;;;;4940541;28;20061;-77
2022/01/18 03:32:02;;;;;;;;;;;-2.10;99.90;;;;;;4953829;29;20415;-78
2022/01/18 03:34:28;;;;;;;12.15;1.88;;;-2.10;99.90;;;;;;4952961;28;19906;-78
2022/01/18 03:36:54;;;;;;;;;;;-2.20;99.90;;;;;;4953105;28;20036;-79
2022/01/18 03:39:20;;;;;;;;;;;-2.20;99.90;;;;;;4952954;29;19969;-78
2022/01/18 03:41:52;;;;;;;;;;;-2.20;99.90;;;;;;4952909;29;19948;-78
2022/01/18 03:44:18;;;;;;;;;;;-2.10;99.90;;;;;;4952557;28;19910;-78
2022/01/18 03:46:44;;;;;;;;;;;-2.10;99.90;;;;;;4953561;29;19914;-78
2022/01/18 03:49:09;;;;;;;;;;;-2.10;99.90;;;;;;4952358;28;19962;-78
2022/01/18 03:51:35;;;;;;;;;;;-2.10;99.90;;;;;;4953698;29;19982;-79
2022/01/18 03:54:00;;;;;;;;;;;-2.10;99.90;;;;;;4952496;28;19906;-77
2022/01/18 03:56:26;;;;;;;;;;;-2.10;99.90;;;;;;4952564;29;19934;-79
2022/01/18 03:58:52;;;;;;;;;;;-2.10;99.90;;;;;;4953914;29;19957;-78
2022/01/18 04:01:17;;;;;;;;;;;-2.10;99.90;;;;;;4954032;29;19980;-78
2022/01/18 04:03:43;;;;;;;;;;;-2.10;99.90;;;;;;4953147;29;20001;-78
2022/01/18 04:06:08;;;;;;;;;;;-2.00;99.90;;;;;;4952880;28;20280;-78
2022/01/18 04:08:34;;;;;;;;;;;-1.90;99.90;;;;;;4954225;29;19922;-78
2022/01/18 04:10:59;;;;;;;;;;;-1.90;99.90;;;;;;4938229;29;19917;-78
2022/01/18 04:13:25;;;;;;;;;;;-2.00;99.90;;;;;;4956368;28;19910;-78
2022/01/18 04:15:51;;;;;;;;;;;-2.00;99.90;;;;;;4963483;29;19906;-80
2022/01/18 04:29:03;;;;;;;;;;;-2.30;99.90;;;;;;4939442;28;19915;-79
2022/01/18 04:31:29;;;;;;;;;;;-2.30;99.90;;;;;;4957143;29;19918;-78
2022/01/18 04:33:56;;;;;;;;;;;-2.30;99.90;;;;;;4960038;28;19938;-79
2022/01/18 04:36:22;;;;;;;;;;;-2.40;99.90;;;;;;4958512;29;19917;-79
2022/01/18 04:38:48;;;;;;;;;;;-2.40;99.90;;;;;;4952954;29;20028;-78
2022/01/18 04:41:17;;;;;;;;;;;-2.40;99.90;;;;;;4953934;29;19956;-78
2022/01/18 04:49:07;;;;;;;;;;;-2.30;99.90;;;;;;4953492;29;19917;-80
2022/01/18 04:51:33;;;;;;;;;;;-2.30;99.90;;;;;;4951729;29;19906;-78
2022/01/18 04:54:01;;;;;;;;;;;-2.40;99.90;;;;;;4951896;29;20379;-79
2022/01/18 04:58:59;;;;;;;;;;;-2.50;99.90;;;;;;4953124;29;19906;-78
2022/01/18 05:01:25;;;;;;;;;;;-2.50;99.90;;;;;;4951651;28;19910;-78
2022/01/18 05:03:50;;;;;;;;;;;-2.70;99.90;;;;;;4952267;29;19953;-79
2022/01/18 05:06:18;;;;;;;;;;;-2.70;99.90;;;;;;4952183;28;20013;-78
2022/01/18 05:08:43;;;;;;;;;;;-2.80;99.90;;;;;;4951664;28;19914;-79
2022/01/18 05:11:14;;;;;;;;;;;-2.80;99.90;;;;;;4952180;28;19933;-78
2022/01/18 05:16:46;;;;;;;;;;;-2.90;99.90;;;;;;4953114;29;20308;-79
2022/01/18 05:24:18;;;;;;;;;;;-3.10;99.90;;;;;;4953911;29;19906;-79
2022/01/18 05:26:43;;;;;;;;;;;-3.10;99.90;;;;;;4951223;29;20021;-78
2022/01/18 05:29:09;;;;;;;;;;;-3.20;99.90;;;;;;4953136;28;19914;-78
2022/01/18 05:31:35;;;;;;;;;;;-3.20;99.90;;;;;;4951565;29;19999;-78
2022/01/18 05:34:00;;;;;;;;;;;-3.30;99.90;;;;;;4952752;29;19961;-78
2022/01/18 05:36:27;;;;;;;;;;;-3.40;99.90;;;;;;4952180;28;20009;-79
2022/01/18 05:38:53;;;;;;;;;;;-3.40;99.90;;;;;;4934550;29;19914;-79
2022/01/18 05:41:18;;;;;;;;;;;-3.50;99.90;;;;;;4953237;28;19917;-79
2022/01/18 05:43:44;;;;;;;;;;;-3.50;99.90;;;;;;4953189;29;19914;-79
2022/01/18 05:46:09;;;;;;;;;;;-3.50;99.90;;;;;;4954961;28;19911;-79
2022/01/18 05:48:35;;;;;;;;;;;-3.60;99.90;;;;;;4963237;29;20005;-78
2022/01/18 05:51:00;;;;;;;;;;;-3.60;99.90;;;;;;4951521;29;19917;-79
2022/01/18 05:53:26;;;;;;;;;;;-3.60;99.90;;;;;;4952797;29;20326;-78
2022/01/18 05:55:52;;;;;;;;;;;-3.50;99.90;;;;;;4951024;29;20268;-79
2022/01/18 05:58:18;;;;;;;;;;;-3.20;99.90;;;;;;4950625;29;19984;-78
2022/01/18 06:00:44;;;;;;;;;;;-2.80;99.90;;;;;;4950925;29;20636;-79
2022/01/18 06:03:15;;;;;;;;;;;-2.50;99.90;;;;;;4951685;28;19917;-78
2022/01/18 06:08:25;;;;;;;;;;;-2.10;99.90;;;;;;4949767;28;20052;-78
2022/01/18 06:10:50;;;;;;;;;;;-1.90;99.90;;;;;;4948750;28;19996;-78
2022/01/18 06:13:16;;;;;;;;;;;-1.70;99.90;;;;;;4950346;28;19910;-78
2022/01/18 06:15:42;;;;;;;;;;;-1.60;99.90;;;;;;4949514;28;20028;-78
2022/01/18 06:18:07;;;;;;;;;;;-1.50;99.90;;;;;;4949281;28;19906;-78
2022/01/18 06:20:34;;;;;;;;;;;-1.40;99.90;;;;;;4949465;29;19910;-78
2022/01/18 06:23:00;;;;;;;;;;;-1.30;99.90;;;;;;4950158;28;19906;-78
2022/01/18 06:25:25;;;;;;;;;;;-1.20;99.90;;;;;;4950268;29;19906;-78
2022/01/18 06:27:53;;;;;;;;;;;-1.10;99.90;;;;;;4950115;28;19917;-78
2022/01/18 06:30:19;;;;;;;;;;;-1.10;99.90;;;;;;4933834;29;20347;-79
2022/01/18 06:32:45;;;;;;;;;;;-1.00;99.90;;;;;;4950136;29;19917;-78
2022/01/18 06:35:11;;;;;;;;;;;-0.90;99.90;;;;;;4950447;28;19911;-78
2022/01/18 06:37:36;;;;;;;;;;;-0.90;99.90;;;;;;4951482;29;19913;-79
2022/01/18 06:40:04;;;;;;;;;;;-0.90;99.90;;;;;;4952232;28;19910;-79
2022/01/18 06:42:30;;;;;;;;;;;-0.90;99.90;;;;;;4953378;29;19910;-78
2022/01/18 06:44:55;;;;;;;;;;;-0.90;99.90;;;;;;4953232;29;19907;-79
2022/01/18 06:47:21;;;;;;;;;;;-0.90;99.90;;;;;;4953096;28;19917;-79
2022/01/18 06:49:46;;;;;;;;;;;-0.90;99.90;;;;;;4953370;28;19958;-79
2022/01/18 06:52:12;;;;;;;;;;;-0.80;99.90;;;;;;4950721;29;19925;-78
2022/01/18 06:54:37;;;;;;;;;;;-0.80;99.90;;;;;;4953129;29;19985;-78
2022/01/18 06:57:03;;;;;;;;;;;-0.70;99.90;;;;;;4957225;28;19926;-80
2022/01/18 06:59:29;;;;;;;;;;;-0.70;99.90;;;;;;4961560;28;20277;-79
2022/01/18 07:01:54;;;;;;;;;;;-0.70;99.90;;;;;;4961794;29;19921;-79
2022/01/18 07:04:20;;;;;;;;;;;-0.70;99.90;;;;;;4962746;29;20364;-80
2022/01/18 07:06:46;;;;;;;;;;;-0.70;99.90;;;;;;4963252;29;19910;-80
2022/01/18 07:09:12;;;;;;;;;;;-0.70;99.90;;;;;;4963725;29;19910;-79
2022/01/18 07:11:37;;;;;;;;;;;-0.40;99.90;;;;;;4962864;29;20005;-79
2022/01/18 07:14:03;;;;;;;;;;;0.00;99.90;;;;;;4965961;29;19902;-79
2022/01/18 07:16:29;;;;;;;;;;;0.40;99.90;;;;;;4973536;29;19910;-80
2022/01/18 07:18:54;;;;;;;;;;;0.90;99.90;;;;;;4976806;29;19914;-79
2022/01/18 07:21:20;;;;;;;;;;;1.30;99.90;;;;;;4957476;29;19957;-79
2022/01/18 07:23:45;;;;;;;;;;;1.60;98.90;;;;;;4957427;29;19917;-78
2022/01/18 07:26:11;;;;;;;;;;;1.80;98.40;;;;;;4955640;29;19910;-78
2022/01/18 07:28:36;;;;;;;;;;;2.20;94.10;;;;;;4955925;29;20390;-78
2022/01/18 07:31:02;;;;;;;;;;;2.60;94.20;;;;;;4954505;28;19962;-78
2022/01/18 07:33:27;;;;;;;;;;;2.90;91.90;;;;;;4954455;29;19910;-79
2022/01/18 07:35:53;;;;;;;;;;;3.20;88.40;;;;;;4954071;29;19917;-78
2022/01/18 07:38:18;;;;;;;;;;;3.40;87.90;;;;;;4953670;29;19907;-78
2022/01/18 07:40:45;;;;;;;;;;;3.50;85.70;;;;;;4952399;28;19910;-78
2022/01/18 07:43:15;;;;;;;;;;;3.60;87.50;;;;;;4952048;29;19981;-77
2022/01/18 07:45:42;;;;;;;;;;;3.60;84.20;;;;;;4953218;29;19911;-77
2022/01/18 07:48:08;;;;;;;;;;;3.50;84.00;;;;;;4953724;29;19961;-78
2022/01/18 07:50:33;;;;;;;;;;;3.60;77.40;;;;;;4952204;29;20378;-79
2022/01/18 07:52:59;;;;;;;;;;;3.50;82.30;;;;;;4953233;28;19914;-78
2022/01/18 07:55:25;;;;;;;;;;;3.70;81.40;;;;;;4952364;29;19910;-78
2022/01/18 07:57:50;;;;;;;;;;;3.70;79.70;;;;;;4953696;29;19910;-78
2022/01/18 08:00:16;;;;;;;;;;;3.80;79.70;;;;;;4952044;29;20262;-79
2022/01/18 08:02:42;;;;;;;;;;;3.90;78.40;;;;;;4951649;28;19910;-78
2022/01/18 08:05:09;;;;;;;;;;;4.00;78.60;;;;;;4951063;29;19929;-78
2022/01/18 08:07:35;;;;;;;;;;;4.20;76.00;;;;;;4951776;28;19998;-78
2022/01/18 08:10:00;;;;;;;;;;;4.40;74.00;;;;;;4951906;28;19985;-78
2022/01/18 08:12:26;;;;;;;;;;;4.50;71.10;;;;;;4953604;28;19950;-78
2022/01/18 08:14:54;;;;;;;;;;;4.70;70.70;;;;;;4951541;29;19907;-78
2022/01/18 08:17:22;;;;;;;;;;;4.70;70.10;;;;;;4951149;28;19917;-78
2022/01/18 08:19:48;;;;;;;;;;;4.80;70.10;;;;;;4951782;28;19942;-78
2022/01/18 08:22:14;;;;;;;;;;;4.90;69.00;;;;;;4954066;29;19946;-79
2022/01/18 08:24:40;;;;;;;;;;;4.80;71.00;;;;;;4953435;28;20001;-79
2022/01/18 08:27:06;;;;;;;;;;;5.00;69.60;;;;;;4954206;29;19914;-78
2022/01/18 08:29:31;;;;;;;;;;;5.20;67.70;;;;;;4955948;28;19929;-79
2022/01/18 08:31:57;;;;;;;;;;;5.50;65.20;;;;;;4955969;29;19926;-79
2022/01/18 08:34:22;;;;;;;;;;;5.70;64.30;;;;;;4955901;29;20363;-77
2022/01/18 08:36:50;;;;;;;;;;;5.60;63.40;;;;;;4956884;29;19965;-77
2022/01/18 08:39:15;;;;;;;;;;;5.90;64.70;;;;;;4955425;29;19907;-77
2022/01/18 08:41:41;;;;;;;;;;;6.20;62.10;;;;;;4955866;28;20303;-81
2022/01/18 08:44:06;;;;;;;;;;;6.40;60.40;;;;;;4956591;29;20427;-76
2022/01/18 08:46:32;;;;;;;;;;;6.60;60.40;;;;;;4955933;28;19921;-77
2022/01/18 08:48:58;;;;;;;;;;;6.70;60.00;;;;;;4958374;29;19922;-77
2022/01/18 08:51:23;;;;;;;;;;;7.00;58.70;;;;;;4952452;29;19910;-76
2022/01/18 08:53:50;;;;;;;;;;;7.10;58.00;;;;;;4950972;29;19910;-77
2022/01/18 08:56:16;;;;;;;;;;;7.10;57.60;;;;;;4952107;29;19911;-78
2022/01/18 08:58:42;;;;;;;;;;;7.20;57.10;;;;;;4950012;28;19914;-78
2022/01/18 09:01:08;;;;;;;;;;;7.20;57.70;;;;;;4951101;29;19907;-77
2022/01/18 09:03:33;;;;;;;;;;;7.10;57.20;;;;;;4952113;29;19906;-78
2022/01/18 09:05:59;;;;;;;;;;;7.30;57.20;;;;;;4951660;29;19965;-77
2022/01/18 09:08:24;;;;;;;;;;;6.90;58.70;;;;;;4952975;29;19968;-78
2022/01/18 09:10:52;;;;;;;;;;;6.50;59.70;;;;;;4954372;29;19922;-78
2022/01/18 09:13:18;;;;;;;;;;;6.40;60.50;;;;;;4955294;29;19906;-78
2022/01/18 09:15:44;;;;;;;;;;;5.90;61.50;;;;;;4954915;29;20017;-78
2022/01/18 09:18:10;;;;;;;;;;;5.80;61.90;;;;;;4952706;28;19910;-77
2022/01/18 09:20:38;;;;;;;;;;;5.40;63.40;;;;;;4952090;28;20387;-77
2022/01/18 09:23:03;;;;;;;;;;;4.90;67.00;;;;;;4952142;28;19910;-81
2022/01/18 09:25:30;;;;;;;;;;;4.80;69.40;;;;;;4956233;29;19930;-81
2022/01/18 09:27:56;;;;;;;;;;;4.80;72.20;;;;;;4949663;28;19914;-77
2022/01/18 09:30:22;;;;;;;;;;;4.90;71.80;;;;;;4952561;29;19929;-79
2022/01/18 09:32:48;;;;;;;;;;;4.80;73.20;;;;;;4954256;28;19913;-79
2022/01/18 09:35:15;;;;;;;;;;;4.80;72.50;;;;;;4953333;29;19949;-79
2022/01/18 09:37:41;;;;;;;;;;;4.80;73.90;;;;;;4953358;28;19911;-78
2022/01/18 09:40:08;;;;;;;;;;;4.90;71.60;;;;;;4954666;28;19910;-77
2022/01/18 09:42:36;;;;;;;;;;;4.70;72.30;;;;;;4952876;28;19907;-77
2022/01/18 09:45:12;;;;;;;;;;;4.80;74.60;;;;;;4951999;29;19918;-78
2022/01/18 09:47:38;;;;;;;;;;;4.90;71.00;;;;;;4957273;29;19906;-80
2022/01/18 09:50:04;;;;;;;;;;;4.80;73.50;;;;;;4950892;28;19915;-77
2022/01/18 09:52:30;;;;;;;;;;;4.70;75.90;;;;;;4938121;28;19918;-79
2022/01/18 09:54:56;;;;;;;;;;;4.70;75.20;;;;;;4956227;28;20454;-80
2022/01/18 09:57:21;;;;;;;;;;;4.70;77.60;;;;;;4958837;29;19982;-80
2022/01/18 09:59:47;;;;;;;;;;;4.80;76.40;;;;;;4962382;28;19911;-79
2022/01/18 10:02:12;;;;;;;;;;;4.70;76.00;;;;;;4962899;29;19906;-79
2022/01/18 10:04:39;;;;;;;;;;;4.70;74.00;;;;;;4954957;29;19965;-80
2022/01/18 10:07:05;;;;;;;;;;;4.80;73.80;;;;;;4955370;29;19914;-78
2022/01/18 10:09:30;;;;;;;;;;;4.80;73.50;;;;;;4950141;29;19915;-76
2022/01/18 10:12:13;;;;;;;;;;;4.70;74.70;;;;;;4950394;29;20013;-77
2022/01/18 10:14:39;;;;;;;;;;;4.70;76.90;;;;;;4952180;29;19911;-78
2022/01/18 10:17:06;;;;;;;;;;;4.70;74.00;;;;;;4958566;28;19934;-79
2022/01/18 10:19:33;;;;;;;;;;;4.70;75.00;;;;;;4955692;29;19910;-77
2022/01/18 10:22:09;;;;;;;;;;;4.70;75.00;;;;;;4952968;29;19910;-79
2022/01/18 10:24:34;;;;;;;;;;;4.60;74.60;;;;;;4950749;29;20339;-78
2022/01/18 10:27:00;;;;;;;;;;;4.60;78.90;;;;;;4952438;29;19934;-76
2022/01/18 10:29:27;;;;;;;;;;;4.70;80.30;;;;;;4950376;28;19946;-79
2022/01/18 10:34:42;;;;;;;;;;;4.90;78.70;;;;;;4952175;29;19917;-77
2022/01/18 10:37:09;;;;;;;;;;;4.90;75.60;;;;;;4952697;28;19911;-77
2022/01/18 10:39:36;;;;;;;;;;;4.90;74.70;;;;;;4953139;28;19910;-76
2022/01/18 10:42:14;;;;;;;;;;;4.80;75.60;;;;;;4950753;29;20370;-76
2022/01/18 10:44:39;;;;;;;;;;;4.70;77.90;;;;;;4952254;28;19914;-77
2022/01/18 10:47:05;;;;;;;;;;;4.80;71.90;;;;;;4952315;29;19980;-76
2022/01/18 10:49:43;;;;;;;;;;;4.80;73.70;;;;;;4952195;28;19962;-77
2022/01/18 10:52:10;;;;;;;;;;;4.80;74.60;;;;;;4952145;28;19910;-77
2022/01/18 10:54:43;;;;;;;;;;;4.90;77.30;;;;;;4952476;29;19911;-77
2022/01/18 10:57:11;;;;;;;;;;;4.90;71.80;;;;;;4951288;29;19987;-77
2022/01/18 10:59:40;;;;;;;;;;;4.80;75.00;;;;;;4950897;29;19910;-78
2022/01/18 11:02:05;;;;;;;;;;;4.90;73.00;;;;;;4951710;29;19910;-77
2022/01/18 11:04:31;;;;;;;;;;;4.90;74.90;;;;;;4952018;29;19957;-77
2022/01/18 11:06:58;;;;;;;;;;;5.00;76.40;;;;;;4951598;29;19911;-77
2022/01/18 11:09:24;;;;;;;;;;;5.00;72.40;;;;;;4952780;28;19963;-77
2022/01/18 11:11:50;;;;;;;;;;;5.00;71.10;;;;;;4951678;29;19910;-77
2022/01/18 11:14:19;;;;;;;;;;;5.00;72.00;;;;;;4952452;28;19957;-78
2022/01/18 11:16:49;;;;;;;;;;;4.90;72.60;;;;;;4951446;29;19972;-77
2022/01/18 11:21:51;;;;;;;;;;;5.00;70.60;;;;;;4953143;29;19997;-77
2022/01/18 11:24:17;;;;;;;;;;;5.00;72.90;;;;;;4947719;29;19910;-76
2022/01/18 11:26:44;;;;;;;;;;;5.00;73.20;;;;;;4951547;29;19917;-77
2022/01/18 11:29:10;;;;;;;;;;;4.90;73.00;;;;;;4951746;29;19922;-77
2022/01/18 11:31:37;;;;;;;;;;;4.90;73.80;;;;;;4952635;28;19914;-77
2022/01/18 11:34:03;;;;;;;;;;;4.90;75.60;;;;;;4951348;28;19942;-77
2022/01/18 11:36:32;;;;;;;;;;;4.90;71.30;;;;;;4953471;28;20283;-76
2022/01/18 11:39:01;;;;;;;;;;;5.00;71.80;;;;;;4952976;29;19910;-77
2022/01/18 11:41:28;;;;;;;;;;;5.00;72.30;;;;;;4954844;29;20491;-77
2022/01/18 11:43:55;;;;;;;;;;;5.00;71.70;;;;;;4954449;28;19906;-77
2022/01/18 11:46:24;;;;;;;;;;;5.00;71.90;;;;;;4954522;29;19910;-77
2022/01/18 11:49:00;;;;;;;;;;;4.90;75.00;;;;;;4960742;28;19989;-78
2022/01/18 11:51:44;;;;;;;;;;;4.90;75.90;;;;;;4951930;29;19918;-77
2022/01/18 11:54:19;;;;;;;;;;;5.00;77.00;;;;;;4950805;29;19933;-77
2022/01/18 11:56:46;;;;;;;;;;;5.10;75.20;;;;;;4934996;29;19964;-77
2022/01/18 11:59:19;;;;;;;;;;;5.10;75.60;;;;;;4950618;29;19911;-76
2022/01/18 12:01:45;;;;;;;;;;;5.20;73.80;;;;;;4950582;29;19910;-77
2022/01/18 12:04:11;;;;;;;;;;;5.10;72.90;;;;;;4950531;29;19918;-77
2022/01/18 12:06:43;;;;;;;;;;;5.10;74.30;;;;;;4951787;29;19926;-77
2022/01/18 12:09:27;;;;;;;;;;;5.20;72.20;;;;;;4952018;29;19957;-77
2022/01/18 12:11:56;;;;;;;;;;;5.20;72.90;;;;;;4934678;29;19918;-76
2022/01/18 12:14:31;;;;;;;;;;;5.20;72.00;;;;;;4951192;28;19911;-76
2022/01/18 12:17:11;;;;;;;;;;;5.10;71.20;;;;;;4953026;28;19957;-77
2022/01/18 12:19:47;;;;;;;;;;;5.10;70.10;;;;;;4952445;29;19997;-77
2022/01/18 12:22:13;;;;;;;;;;;5.10;70.70;;;;;;4952714;29;19913;-77
2022/01/18 12:24:45;;;;;;;;;;;5.10;71.80;;;;;;4952122;28;19917;-77
2022/01/18 12:27:27;;;;;;;;;;;5.20;70.70;;;;;;4953303;29;20021;-77
2022/01/18 12:30:15;;;;;;;;;;;5.10;70.20;;;;;;4953132;28;19918;-77
2022/01/18 12:33:01;;;;;;;;;;;5.10;70.70;;;;;;4951318;29;20699;-77
2022/01/18 12:35:27;;;;;;;;;;;5.10;71.20;;;;;;4952387;29;19938;-77
2022/01/18 12:37:54;;;;;;;;;;;5.10;70.70;;;;;;4952248;29;19911;-76
2022/01/18 12:40:24;;;;;;;;;;;5.10;70.10;;;;;;4955287;29;19918;-77
2022/01/18 12:45:30;;;;;;;;;;;5.00;72.60;;;;;;4953614;29;20298;-77
2022/01/18 12:47:59;;;;;;;;;;;5.00;71.70;;;;;;4949645;29;20664;-77
2022/01/18 12:50:28;;;;;;;;;;;5.00;71.90;;;;;;4933725;29;19981;-77
2022/01/18 12:52:53;;;;;;;;;;;5.00;73.40;;;;;;4949525;29;19965;-77
2022/01/18 12:55:36;;;;;;;;;;;5.00;74.10;;;;;;4933652;29;19910;-77
2022/01/18 12:58:07;;;;;;;;;;;5.00;75.70;;;;;;4949346;29;20413;-77
2022/01/18 13:00:40;;;;;;;;;;;5.00;74.40;;;;;;4933807;29;19917;-77
2022/01/18 13:03:06;;;;;;;;;;;5.00;77.20;;;;;;4949054;28;19910;-77
2022/01/18 13:05:33;;;;;;;;;;;5.10;77.70;;;;;;4950682;29;20272;-78
2022/01/18 13:07:58;;;;;;;;;;;5.10;76.70;;;;;;4951232;29;19907;-77
2022/01/18 13:10:34;;;;;;;;;;;5.20;76.40;;;;;;4951666;28;19918;-77
2022/01/18 13:13:00;;;;;;;;;;;5.20;75.50;;;;;;4952213;29;19914;-76
2022/01/18 13:15:39;;;;;;;;;;;5.30;74.80;;;;;;4950468;29;19914;-77
2022/01/18 13:22:55;;;;;;;;;;;5.40;71.60;;;;;;4951238;29;20486;-77
2022/01/18 13:26:28;;;;;;;;;;;5.30;70.20;;;;;;4950123;29;19981;-77
2022/01/18 13:28:54;;;;;;;;;;;5.30;72.00;;;;;;4949544;28;19917;-76
2022/01/18 13:31:22;;;;;;;;;;;5.30;71.30;;;;;;4949937;29;19907;-77
2022/01/18 13:33:58;;;;;;;;;;;5.30;71.60;;;;;;4948165;29;19917;-77
2022/01/18 13:36:24;;;;;;;;;;;5.20;72.40;;;;;;4949872;28;19914;-77
2022/01/18 13:38:50;;;;;;;;;;;5.20;71.20;;;;;;4949856;29;19973;-77
2022/01/18 13:41:19;;;;;;;;;;;5.30;69.40;;;;;;4948545;29;19911;-77
2022/01/18 13:43:47;;;;;;;;;;;5.30;69.10;;;;;;4948158;29;20401;-77
2022/01/18 13:46:23;;;;;;;;;;;5.20;68.80;;;;;;4949787;28;20350;-77
2022/01/18 13:48:48;;;;;;;;;;;5.20;69.10;;;;;;4948034;29;20445;-77
2022/01/18 13:51:14;;;;;;;;;;;5.20;69.80;;;;;;4948536;29;19913;-77
2022/01/18 13:53:41;;;;;;;;;;;5.20;69.50;;;;;;4949380;29;20052;-77
2022/01/18 13:56:11;;;;;;;;;;;5.20;69.10;;;;;;4948423;29;19941;-77
2022/01/18 13:58:44;;;;;;;;;;;5.20;68.70;;;;;;4950176;29;19910;-77
2022/01/18 14:01:10;;;;;;;;;;;5.20;67.30;;;;;;4949806;28;19910;-77
2022/01/18 14:03:36;;;;;;;;;;;5.20;67.70;;;;;;4931980;29;19917;-78
2022/01/18 14:06:02;;;;;;;;;;;5.30;67.30;;;;;;4949216;29;19910;-77
2022/01/18 14:08:51;;;;;;;;;;;5.30;66.70;;;;;;4948255;29;19906;-77
2022/01/18 14:11:18;;;;;;;;;;;5.20;67.10;;;;;;4943994;29;19918;-78
2022/01/18 14:13:43;;;;;;;;;;;5.00;68.10;;;;;;4948965;28;19918;-76
2022/01/18 14:16:22;;;;;;;;;;;4.90;68.00;;;;;;4949504;28;20174;-76
2022/01/18 14:18:51;;;;;;;;;;;4.80;69.00;;;;;;4948615;29;19949;-76
2022/01/18 14:21:23;;;;;;;;;;;4.70;69.70;;;;;;4932739;28;20204;-77
2022/01/18 14:23:49;;;;;;;;;;;4.70;69.00;;;;;;4949152;29;20436;-76
2022/01/18 14:26:18;;;;;;;;;;;4.60;70.40;;;;;;4950801;29;20062;-77
2022/01/18 14:28:44;;;;;;;;;;;4.50;72.20;;;;;;4949030;28;20380;-77
2022/01/18 14:31:09;;;;;;;;;;;4.50;73.70;;;;;;4949457;29;19930;-77
2022/01/18 14:33:35;;;;;;;;;;;4.30;75.40;;;;;;4950711;29;19910;-76
2022/01/18 14:36:00;;;;;;;;;;;4.20;76.80;;;;;;4951796;29;19918;-77
2022/01/18 14:38:27;;;;;;;;;;;4.10;79.60;;;;;;4950716;28;19918;-77
2022/01/18 14:40:54;;;;;;;;;;;4.10;81.20;;;;;;4950322;29;19968;-77
2022/01/18 14:43:31;;;;;;;;;;;4.00;81.60;;;;;;4952911;29;19910;-77
2022/01/18 14:46:21;;;;;;;;;;;3.90;83.30;;;;;;4955383;29;19911;-77
2022/01/18 14:48:47;;;;;;;;;;;3.90;82.60;;;;;;4957509;29;20030;-78
2022/01/18 14:51:12;;;;;;;;;;;4.00;81.80;;;;;;4953327;29;19972;-77
2022/01/18 14:53:38;;;;;;;;;;;4.00;82.60;;;;;;4952940;29;20224;-77
2022/01/18 14:56:05;;;;;;;;;;;3.90;84.50;;;;;;4951671;28;19910;-78
2022/01/18 14:58:31;;;;;;;;;;;3.80;85.60;;;;;;4951299;29;19949;-78
2022/01/18 15:00:59;;;;;;;;;;;3.70;87.00;;;;;;4949972;28;20397;-77
2022/01/18 15:03:24;;;;;;;;;;;3.60;88.80;;;;;;4950912;28;19925;-77
2022/01/18 15:05:50;;;;;;;;;;;3.50;87.90;;;;;;4951853;29;19910;-78
2022/01/18 15:08:16;;;;;;;;;;;3.50;87.50;;;;;;4953051;29;19945;-77
2022/01/18 15:10:41;;;;;;;;;;;3.40;88.30;;;;;;4952325;28;19960;-77
2022/01/18 15:13:07;;;;;;;;;;;3.40;89.10;;;;;;4953132;29;19906;-78
2022/01/18 15:15:33;;;;;;;;;;;3.30;89.70;;;;;;4954139;28;20390;-77
2022/01/18 15:17:59;;;;;;;;;;;3.20;90.20;;;;;;4954185;28;19957;-78
2022/01/18 15:20:25;;;;;;;;;;;3.20;89.40;;;;;;4957175;28;19914;-78
2022/01/18 15:22:51;;;;;;;;;;;3.10;90.10;;;;;;4959472;29;19911;-78
2022/01/18 15:25:17;;;;;;;;;;;3.00;90.10;;;;;;4961403;29;19910;-79
2022/01/18 15:27:43;;;;;;;;;;;2.90;90.30;;;;;;4960050;29;19964;-80
2022/01/18 15:30:11;;;;;;;;;;;2.90;90.50;;;;;;4957686;29;20009;-79
2022/01/18 15:32:41;;;;;;;;;;;2.90;90.40;;;;;;4958046;29;19914;-78
2022/01/18 15:35:06;;;;;;;;;;;2.80;90.20;;;;;;4954853;28;19910;-78